Terminal Aerodrome Forecast
Issued by NWS Brownsville, TX

Home | Current Version | Previous Version | Text Only | Print | Product List | Glossary On
Versions: 1 2 3 4 5 6 7 8 9 10 11 12 13 14 15 16
300
FTUS44 KBRO 231736
TAFHRL
TAF
KHRL 231736Z 2318/2418 15007KT P6SM VCSH SCT050 SCT060
     FM240200 13005KT P6SM SCT020=

USA.gov is the U.S. government's official web portal to all federal, state and local government web resources and services.